Time;durP1;ratioP1;P1;durP2;ratioP2;P2;SDS_P1;SDS_P2;PMS_P1;PMS_P2;Temp;Humidity;BMP_temperature;BMP_pressure;BME280_temperature;BME280_humidity;BME280_pressure;Samples;Min_cycle;Max_cycle;Signal;HPM_P1;HPM_P2
2022/09/11 00:01:21;;;;;;;;;;;13.00;99.90;;;;;;4990136;28;20046;-74
2022/09/11 00:03:47;;;;;;;2.40;2.20;;;13.00;99.90;;;;;;4987226;28;20365;-74
2022/09/11 00:06:19;;;;;;;0.40;0.40;;;13.10;99.90;;;;;;4988495;28;20482;-74
2022/09/11 00:08:47;;;;;;;1.30;1.20;;;13.30;99.90;;;;;;4967809;28;20054;-75
2022/09/11 00:11:17;;;;;;;1.20;1.10;;;13.10;99.90;;;;;;4969269;28;20486;-75
2022/09/11 00:13:46;;;;;;;1.13;1.10;;;13.10;99.90;;;;;;4978073;28;20029;-75
2022/09/11 00:16:32;;;;;;;0.57;0.57;;;13.10;99.90;;;;;;4990633;28;20107;-75
2022/09/11 00:19:04;;;;;;;0.95;0.95;;;13.10;99.90;;;;;;4986947;28;20113;-75
2022/09/11 00:21:30;;;;;;;0.60;0.60;;;13.10;99.90;;;;;;4988477;28;20113;-75
2022/09/11 00:23:56;;;;;;;1.93;1.70;;;13.10;99.90;;;;;;5007741;28;20171;-74
2022/09/11 00:26:23;;;;;;;1.45;1.35;;;13.10;99.90;;;;;;5008025;28;20030;-74
2022/09/11 00:28:49;;;;;;;;;;;13.10;99.90;;;;;;5006473;28;20033;-74
2022/09/11 00:31:20;;;;;;;2.85;1.55;;;13.10;99.90;;;;;;5006136;28;20395;-75
2022/09/11 00:33:46;;;;;;;0.60;0.55;;;13.00;99.90;;;;;;5007821;28;20384;-74
2022/09/11 00:36:17;;;;;;;2.33;1.53;;;13.00;99.90;;;;;;5007911;28;20041;-74
2022/09/11 00:38:44;;;;;;;1.35;1.27;;;12.90;99.90;;;;;;4991641;28;20134;-74
2022/09/11 00:41:14;;;;;;;0.77;0.77;;;12.90;99.90;;;;;;4987927;28;20344;-74
2022/09/11 00:43:55;;;;;;;1.05;1.05;;;12.90;99.90;;;;;;4988905;28;20042;-74
2022/09/11 00:46:27;;;;;;;1.13;0.98;;;13.00;99.90;;;;;;4988336;28;20478;-75
2022/09/11 00:48:56;;;;;;;2.15;0.93;;;13.00;99.90;;;;;;4987933;28;20022;-75
2022/09/11 00:51:25;;;;;;;0.77;0.70;;;13.00;99.90;;;;;;4988016;28;20031;-75
2022/09/11 00:53:53;;;;;;;0.93;0.93;;;12.90;99.90;;;;;;5002793;28;20456;-75
2022/09/11 00:56:22;;;;;;;0.98;0.98;;;12.90;99.90;;;;;;5005994;28;20469;-74
2022/09/11 00:58:48;;;;;;;0.98;0.82;;;12.90;99.90;;;;;;5005563;28;20526;-75
2022/09/11 01:01:14;;;;;;;0.88;0.82;;;12.80;99.90;;;;;;5005779;28;20469;-74
2022/09/11 01:03:40;;;;;;;0.83;0.83;;;12.40;99.90;;;;;;5007260;28;20080;-74
2022/09/11 01:06:06;;;;;;;0.60;0.60;;;12.80;99.90;;;;;;5007476;28;20029;-74
2022/09/11 01:08:32;;;;;;;1.75;1.38;;;12.80;99.90;;;;;;4994935;28;20066;-75
2022/09/11 01:11:03;;;;;;;1.30;1.20;;;12.80;99.90;;;;;;4987693;28;20104;-76
2022/09/11 01:13:44;;;;;;;0.73;0.73;;;12.80;99.90;;;;;;4987399;28;20032;-75
2022/09/11 01:16:28;;;;;;;1.67;1.02;;;12.70;99.90;;;;;;5006169;28;20038;-75
2022/09/11 01:18:57;;;;;;;0.80;0.80;;;12.70;99.90;;;;;;5007306;28;20034;-75
2022/09/11 01:21:48;;;;;;;0.65;0.65;;;14.90;99.90;;;;;;5007130;28;20040;-73
2022/09/11 01:24:42;;;;;;;0.40;0.40;;;12.70;99.90;;;;;;4992318;28;20074;-73
2022/09/11 01:27:18;;;;;;;0.93;0.88;;;12.80;99.90;;;;;;4986765;28;20478;-73
2022/09/11 01:29:57;;;;;;;2.95;1.95;;;12.80;99.90;;;;;;4987484;28;20257;-72
2022/09/11 01:32:44;;;;;;;1.02;1.02;;;12.70;99.90;;;;;;4989179;28;20113;-74
2022/09/11 01:35:33;;;;;;;1.30;0.85;;;12.80;99.90;;;;;;4986735;28;20330;-73
2022/09/11 01:38:03;;;;;;;0.82;0.82;;;12.70;99.90;;;;;;5005136;28;20116;-73
2022/09/11 01:40:39;;;;;;;1.33;1.02;;;12.80;99.90;;;;;;4989065;28;20022;-73
2022/09/11 01:43:21;;;;;;;0.93;0.93;;;12.80;99.90;;;;;;5007368;28;20469;-74
2022/09/11 01:45:48;;;;;;;0.68;0.68;;;12.80;99.90;;;;;;5004002;28;20026;-73
2022/09/11 01:48:28;;;;;;;1.65;1.15;;;12.80;99.90;;;;;;5007095;28;20034;-73
2022/09/11 01:50:56;;;;;;;1.27;1.17;;;12.80;99.90;;;;;;5007025;28;20490;-72
2022/09/11 01:53:26;;;;;;;0.70;0.70;;;12.80;99.90;;;;;;5006930;28;20559;-73
2022/09/11 01:56:01;;;;;;;0.60;0.60;;;12.90;99.90;;;;;;5003598;28;20038;-73
2022/09/11 01:58:29;;;;;;;1.45;1.35;;;12.90;99.90;;;;;;5005618;28;20083;-74
2022/09/11 02:01:01;;;;;;;1.17;1.08;;;12.90;99.90;;;;;;4994711;28;20045;-74
2022/09/11 02:03:41;;;;;;;1.85;1.48;;;13.00;99.90;;;;;;4987291;28;20034;-74
2022/09/11 02:06:11;;;;;;;0.82;0.82;;;13.00;99.90;;;;;;5006551;28;20477;-75
2022/09/11 02:08:48;;;;;;;1.45;1.35;;;13.10;99.90;;;;;;5005282;28;20113;-76
2022/09/11 02:11:15;;;;;;;1.63;1.52;;;13.10;99.90;;;;;;5005465;28;20033;-75
2022/09/11 02:13:50;;;;;;;0.95;0.95;;;13.10;99.90;;;;;;5006916;28;20030;-76
2022/09/11 02:16:37;;;;;;;0.75;0.75;;;13.10;99.90;;;;;;5003059;28;20038;-74
2022/09/11 02:19:12;;;;;;;0.82;0.82;;;13.20;99.90;;;;;;5006455;28;20026;-76
2022/09/11 02:21:38;;;;;;;1.75;1.65;;;13.20;99.90;;;;;;5005143;28;20160;-75
2022/09/11 02:24:04;;;;;;;1.00;1.00;;;13.30;99.90;;;;;;4996265;28;20448;-75
2022/09/11 02:26:36;;;;;;;0.50;0.50;;;13.30;99.90;;;;;;4987179;28;20038;-75
2022/09/11 02:29:02;;;;;;;1.45;1.35;;;13.40;99.90;;;;;;4985743;28;20034;-75
2022/09/11 02:31:28;;;;;;;1.40;1.27;;;13.40;99.90;;;;;;4987763;28;20035;-76
2022/09/11 02:33:53;;;;;;;0.90;0.90;;;13.40;99.90;;;;;;4990288;28;20522;-76
2022/09/11 02:36:48;;;;;;;2.33;2.00;;;13.50;99.90;;;;;;4990260;28;20107;-75
2022/09/11 02:39:20;;;;;;;0.85;0.85;;;13.40;99.90;;;;;;4999739;28;20574;-75
2022/09/11 02:41:57;;;;;;;2.97;1.73;;;13.50;99.90;;;;;;5009914;28;20478;-75
2022/09/11 02:44:42;;;;;;;1.60;1.17;;;13.60;99.90;;;;;;5009458;28;20054;-76
2022/09/11 02:47:19;;;;;;;1.70;1.60;;;13.60;99.90;;;;;;4969088;28;20043;-76
2022/09/11 02:50:04;;;;;;;1.70;1.60;;;13.60;99.90;;;;;;4970563;28;20166;-75
2022/09/11 02:52:46;;;;;;;0.70;0.70;;;13.60;99.90;;;;;;4970874;28;20030;-76
2022/09/11 02:55:28;;;;;;;2.25;1.38;;;13.60;99.90;;;;;;5001550;28;20553;-75
2022/09/11 02:58:07;;;;;;;1.02;1.02;;;13.60;99.90;;;;;;5009795;28;20041;-76
2022/09/11 03:00:34;;;;;;;0.45;0.45;;;13.60;99.90;;;;;;5007930;28;20249;-75
2022/09/11 03:02:59;;;;;;;;;;;13.50;99.90;;;;;;5009846;28;20121;-76
2022/09/11 03:05:27;;;;;;;0.47;0.47;;;13.60;99.90;;;;;;5009224;28;20000;-76
2022/09/11 03:07:53;;;;;;;1.00;0.98;;;13.60;99.90;;;;;;5009209;28;20022;-76
2022/09/11 03:10:19;;;;;;;1.13;1.02;;;13.60;99.90;;;;;;4994689;28;20051;-76
2022/09/11 03:12:44;;;;;;;1.70;1.47;;;13.60;99.90;;;;;;4990102;28;20552;-76
2022/09/11 03:15:10;;;;;;;1.23;1.13;;;13.60;99.90;;;;;;4989175;28;20374;-76
2022/09/11 03:17:36;;;;;;;0.87;0.87;;;13.60;99.90;;;;;;4990158;28;20355;-76
2022/09/11 03:20:03;;;;;;;1.60;1.03;;;13.60;99.90;;;;;;4989691;28;20096;-76
2022/09/11 03:22:28;;;;;;;0.30;0.30;;;13.60;99.90;;;;;;4988236;28;20038;-76
2022/09/11 03:24:54;;;;;;;0.87;0.87;;;13.70;99.90;;;;;;4998422;28;20045;-76
2022/09/11 03:27:20;;;;;;;0.73;0.73;;;13.70;99.90;;;;;;5009536;28;20041;-76
2022/09/11 03:29:46;;;;;;;0.80;0.80;;;13.70;99.90;;;;;;5008868;28;20542;-76
2022/09/11 03:32:12;;;;;;;1.20;1.20;;;13.80;99.90;;;;;;5007208;28;20052;-76
2022/09/11 03:34:37;;;;;;;0.47;0.47;;;13.70;99.90;;;;;;5007166;28;20029;-76
2022/09/11 03:37:03;;;;;;;0.93;0.90;;;13.80;99.90;;;;;;5008537;28;20151;-75
2022/09/11 03:39:28;;;;;;;0.30;0.30;;;13.70;99.90;;;;;;5004906;28;20092;-75
2022/09/11 03:41:54;;;;;;;0.30;0.30;;;13.70;99.90;;;;;;4987805;28;20043;-74
2022/09/11 03:44:20;;;;;;;0.30;0.30;;;13.60;99.90;;;;;;4988888;28;20052;-74
2022/09/11 03:46:46;;;;;;;0.20;0.20;;;13.50;99.90;;;;;;4999011;28;20029;-75
2022/09/11 03:49:11;;;;;;;0.30;0.30;;;13.40;99.90;;;;;;5007549;28;20022;-75
2022/09/11 03:51:37;;;;;;;0.50;0.50;;;13.30;99.90;;;;;;5009014;28;20030;-74
2022/09/11 03:54:03;;;;;;;0.80;0.80;;;13.30;99.90;;;;;;5008731;28;20386;-74
2022/09/11 03:56:29;;;;;;;0.37;0.37;;;13.20;99.90;;;;;;4989441;28;20038;-75
2022/09/11 03:58:56;;;;;;;0.30;0.30;;;13.20;99.90;;;;;;4988821;28;20389;-75
2022/09/11 04:01:22;;;;;;;0.20;0.20;;;13.10;99.90;;;;;;4989700;28;20077;-75
2022/09/11 04:03:47;;;;;;;0.30;0.30;;;13.00;99.90;;;;;;4989979;28;20365;-74
2022/09/11 04:06:13;;;;;;;0.73;0.73;;;12.90;99.90;;;;;;4988735;28;20081;-74
2022/09/11 04:08:40;;;;;;;0.93;0.93;;;12.80;99.90;;;;;;4988833;28;20029;-74
2022/09/11 04:11:06;;;;;;;0.47;0.47;;;12.80;99.90;;;;;;5001022;28;20030;-74
2022/09/11 04:13:36;;;;;;;0.30;0.30;;;12.80;99.90;;;;;;5006841;28;20137;-75
2022/09/11 04:16:04;;;;;;;0.30;0.30;;;12.70;99.90;;;;;;5006544;28;20123;-75
2022/09/11 04:18:32;;;;;;;0.70;0.70;;;12.80;99.90;;;;;;5006415;28;20030;-74
2022/09/11 04:20:58;;;;;;;0.35;0.35;;;12.80;99.90;;;;;;5008323;28;20103;-75
2022/09/11 04:23:24;;;;;;;0.40;0.40;;;12.70;99.90;;;;;;5008559;28;20026;-76
2022/09/11 04:25:49;;;;;;;0.40;0.40;;;13.00;99.90;;;;;;4998422;28;20079;-75
2022/09/11 04:28:15;;;;;;;0.40;0.40;;;12.70;99.90;;;;;;4988482;28;20026;-75
2022/09/11 04:30:41;;;;;;;0.30;0.30;;;12.70;99.90;;;;;;4986962;28;20018;-75
2022/09/11 04:33:07;;;;;;;0.93;0.70;;;12.70;99.90;;;;;;4989233;28;20109;-75
2022/09/11 04:35:37;;;;;;;0.30;0.30;;;12.70;99.90;;;;;;4987996;28;20470;-75
2022/09/11 04:38:02;;;;;;;0.43;0.43;;;12.70;99.90;;;;;;4986941;28;20076;-75
2022/09/11 04:40:28;;;;;;;0.40;0.40;;;12.70;99.90;;;;;;4991314;28;20030;-75
2022/09/11 04:42:53;;;;;;;0.30;0.30;;;12.60;99.90;;;;;;5007812;28;20087;-75
2022/09/11 04:45:19;;;;;;;0.30;0.30;;;12.60;99.90;;;;;;5008052;28;20033;-76
2022/09/11 04:47:44;;;;;;;0.30;0.30;;;12.60;99.90;;;;;;5006195;28;20550;-76
2022/09/11 04:50:11;;;;;;;0.50;0.50;;;12.60;99.90;;;;;;5006667;28;20033;-76
2022/09/11 04:52:38;;;;;;;0.63;0.63;;;12.60;99.90;;;;;;5008330;28;20041;-76
2022/09/11 04:55:03;;;;;;;0.40;0.40;;;12.60;99.90;;;;;;5007692;28;20030;-76
2022/09/11 04:57:30;;;;;;;1.03;1.03;;;12.50;99.90;;;;;;4988532;28;20042;-76
2022/09/11 04:59:57;;;;;;;0.50;0.50;;;12.60;99.90;;;;;;4987990;28;20030;-76
2022/09/11 05:02:22;;;;;;;0.32;0.32;;;12.60;99.90;;;;;;4989276;28;20030;-76
2022/09/11 05:04:48;;;;;;;0.50;0.50;;;12.60;99.90;;;;;;4988981;28;20042;-76
2022/09/11 05:07:14;;;;;;;0.30;0.30;;;12.60;99.90;;;;;;4988260;28;20057;-76
2022/09/11 05:09:39;;;;;;;0.30;0.30;;;12.70;99.90;;;;;;4986505;28;20068;-76
2022/09/11 05:12:05;;;;;;;0.40;0.40;;;12.60;99.90;;;;;;5000394;28;20121;-76
2022/09/11 05:14:31;;;;;;;0.40;0.40;;;12.50;99.90;;;;;;5006412;28;20078;-75
2022/09/11 05:16:57;;;;;;;0.30;0.30;;;12.50;99.90;;;;;;5007705;28;20214;-75
2022/09/11 05:19:24;;;;;;;0.47;0.47;;;12.50;99.90;;;;;;4987863;28;20438;-75
2022/09/11 05:21:50;;;;;;;0.77;0.77;;;12.50;99.90;;;;;;4987948;28;20038;-75
2022/09/11 05:24:15;;;;;;;0.40;0.40;;;12.50;99.90;;;;;;4987791;28;20427;-76
2022/09/11 05:26:41;;;;;;;0.30;0.30;;;12.50;99.90;;;;;;4994990;28;20045;-76
2022/09/11 05:29:12;;;;;;;0.53;0.53;;;12.50;99.90;;;;;;5007133;28;20026;-75
2022/09/11 05:31:39;;;;;;;0.40;0.40;;;12.50;99.90;;;;;;5007284;28;20164;-76
2022/09/11 05:34:05;;;;;;;0.30;0.30;;;12.50;99.90;;;;;;5005607;28;20035;-75
2022/09/11 05:36:32;;;;;;;0.43;0.43;;;12.40;99.90;;;;;;5005634;28;20042;-76
2022/09/11 05:38:58;;;;;;;1.20;1.15;;;12.40;99.90;;;;;;5007311;28;20394;-75
2022/09/11 05:41:24;;;;;;;0.40;0.40;;;12.40;99.90;;;;;;5003818;28;20085;-76
2022/09/11 05:43:53;;;;;;;0.30;0.30;;;12.40;99.90;;;;;;4987212;28;20086;-75
2022/09/11 05:46:20;;;;;;;0.30;0.30;;;12.40;99.90;;;;;;4985995;28;20121;-75
2022/09/11 05:48:46;;;;;;;0.30;0.30;;;12.40;99.90;;;;;;4988281;28;20109;-76
2022/09/11 05:51:12;;;;;;;0.93;0.93;;;12.40;99.90;;;;;;4987862;28;20130;-76
2022/09/11 05:53:38;;;;;;;0.45;0.45;;;12.40;99.90;;;;;;4985882;28;20030;-76
2022/09/11 05:56:18;;;;;;;0.30;0.30;;;12.30;99.90;;;;;;4987300;28;20714;-76
2022/09/11 05:58:45;;;;;;;0.30;0.30;;;12.30;99.90;;;;;;4967767;28;20023;-76
2022/09/11 06:01:12;;;;;;;;;;;12.40;99.90;;;;;;4966757;28;20087;-76
2022/09/11 06:03:38;;;;;;;0.50;0.50;;;12.50;99.90;;;;;;4976183;28;20417;-76
2022/09/11 06:06:06;;;;;;;0.30;0.30;;;12.50;99.90;;;;;;4988190;28;20067;-76
2022/09/11 06:08:33;;;;;;;0.30;0.30;;;12.40;99.90;;;;;;4990153;28;20272;-75
2022/09/11 06:11:00;;;;;;;0.50;0.50;;;12.40;99.90;;;;;;4990296;28;20074;-75
2022/09/11 06:13:31;;;;;;;0.30;0.30;;;12.30;99.90;;;;;;5005704;28;20022;-75
2022/09/11 06:15:57;;;;;;;0.30;0.30;;;12.40;99.90;;;;;;5010021;28;20029;-75
2022/09/11 06:18:22;;;;;;;0.50;0.50;;;12.30;99.90;;;;;;5008012;28;20082;-75
2022/09/11 06:21:00;;;;;;;0.30;0.30;;;12.30;99.90;;;;;;5009689;28;20030;-75
2022/09/11 06:23:25;;;;;;;;;;;12.40;99.90;;;;;;5010163;28;20061;-75
2022/09/11 06:25:53;;;;;;;0.30;0.30;;;12.40;99.90;;;;;;5008213;28;20009;-75
2022/09/11 06:28:22;;;;;;;0.35;0.35;;;12.40;99.90;;;;;;4996885;28;20227;-75
2022/09/11 06:30:49;;;;;;;0.63;0.63;;;12.40;99.90;;;;;;4989985;28;20071;-74
2022/09/11 06:33:15;;;;;;;0.40;0.40;;;12.40;99.90;;;;;;4988575;28;20033;-74
2022/09/11 06:35:41;;;;;;;0.35;0.35;;;12.40;99.90;;;;;;4990857;28;20130;-74
2022/09/11 06:38:07;;;;;;;0.33;0.33;;;12.40;99.90;;;;;;4990136;28;20077;-75
2022/09/11 06:40:35;;;;;;;0.30;0.30;;;12.40;99.90;;;;;;4988712;28;20050;-74
2022/09/11 06:43:01;;;;;;;0.30;0.30;;;12.60;99.90;;;;;;4997472;28;20508;-74
2022/09/11 06:45:29;;;;;;;0.50;0.50;;;12.50;99.90;;;;;;5007811;28;20022;-74
2022/09/11 06:47:55;;;;;;;0.30;0.30;;;12.60;99.90;;;;;;5007891;28;20030;-74
2022/09/11 06:50:22;;;;;;;0.40;0.40;;;12.60;99.90;;;;;;5007774;28;20525;-74
2022/09/11 06:52:48;;;;;;;;;;;12.60;99.90;;;;;;5010160;28;20312;-75
2022/09/11 06:55:14;;;;;;;0.30;0.30;;;12.60;99.90;;;;;;5007676;28;20418;-73
2022/09/11 06:57:40;;;;;;;0.30;0.30;;;12.60;99.90;;;;;;5009784;28;20111;-75
2022/09/11 07:00:07;;;;;;;0.40;0.40;;;12.70;99.90;;;;;;5007116;28;20041;-74
2022/09/11 07:02:33;;;;;;;0.73;0.73;;;12.70;99.90;;;;;;5009542;28;20045;-74
2022/09/11 07:04:59;;;;;;;0.30;0.30;;;12.70;99.90;;;;;;4999184;28;20494;-74
2022/09/11 07:07:24;;;;;;;1.43;0.60;;;12.80;99.90;;;;;;4989990;28;20042;-74
2022/09/11 07:09:50;;;;;;;0.67;0.67;;;12.80;99.90;;;;;;4990673;28;20353;-75
2022/09/11 07:12:15;;;;;;;0.37;0.37;;;12.90;99.90;;;;;;4989478;28;20037;-73
2022/09/11 07:14:41;;;;;;;0.53;0.53;;;13.00;99.90;;;;;;4989610;28;20029;-74
2022/09/11 07:17:07;;;;;;;0.40;0.40;;;12.90;99.90;;;;;;4988190;28;20095;-74
2022/09/11 07:19:32;;;;;;;0.30;0.30;;;12.90;99.90;;;;;;4988803;28;20030;-74
2022/09/11 07:21:58;;;;;;;0.30;0.30;;;12.90;99.90;;;;;;4988310;28;20045;-75
2022/09/11 07:24:23;;;;;;;0.30;0.30;;;12.90;99.90;;;;;;4988280;28;20077;-75
2022/09/11 07:26:49;;;;;;;0.40;0.40;;;12.90;99.90;;;;;;4988372;28;20045;-75
2022/09/11 07:29:15;;;;;;;1.07;1.03;;;12.90;99.90;;;;;;4977984;28;20126;-74
2022/09/11 07:31:41;;;;;;;0.40;0.40;;;12.90;99.90;;;;;;4968734;28;20031;-73
2022/09/11 07:34:07;;;;;;;0.40;0.40;;;12.80;99.90;;;;;;4977892;28;20474;-74
2022/09/11 07:36:34;;;;;;;0.33;0.33;;;12.80;99.90;;;;;;4988269;28;20091;-75
2022/09/11 07:39:00;;;;;;;0.40;0.40;;;12.90;99.90;;;;;;4989680;28;20466;-73
2022/09/11 07:41:27;;;;;;;0.40;0.40;;;12.90;99.90;;;;;;4987367;28;20045;-74
2022/09/11 07:43:54;;;;;;;0.50;0.50;;;12.90;99.90;;;;;;4975505;28;20051;-74
2022/09/11 07:46:20;;;;;;;0.30;0.30;;;12.90;99.90;;;;;;4968690;28;20042;-76
2022/09/11 07:48:46;;;;;;;0.50;0.50;;;12.90;99.90;;;;;;4974312;28;20054;-73
2022/09/11 07:51:14;;;;;;;0.40;0.40;;;12.90;99.90;;;;;;4987899;28;20133;-74
2022/09/11 07:53:44;;;;;;;0.30;0.30;;;12.90;99.90;;;;;;4986611;28;20034;-74
2022/09/11 07:56:12;;;;;;;0.82;0.82;;;12.90;99.90;;;;;;4989553;28;20046;-74
2022/09/11 07:58:40;;;;;;;0.30;0.30;;;12.90;99.90;;;;;;4988895;28;20083;-76
2022/09/11 08:01:13;;;;;;;1.00;0.90;;;12.90;99.90;;;;;;4989015;28;20038;-74
2022/09/11 08:03:41;;;;;;;0.30;0.30;;;13.00;99.90;;;;;;4969025;28;20031;-75
2022/09/11 08:06:12;;;;;;;0.60;0.60;;;13.00;99.90;;;;;;4988722;28;20083;-74
2022/09/11 08:08:38;;;;;;;0.30;0.30;;;13.00;99.90;;;;;;4987415;28;20572;-74
2022/09/11 08:11:10;;;;;;;0.43;0.43;;;13.00;99.90;;;;;;4987277;28;20030;-74
2022/09/11 08:13:36;;;;;;;0.30;0.30;;;13.00;99.90;;;;;;4970948;28;20043;-75
2022/09/11 08:16:02;;;;;;;0.57;0.57;;;13.00;99.90;;;;;;4969585;28;20045;-75
2022/09/11 08:18:28;;;;;;;0.80;0.60;;;13.00;99.90;;;;;;4969143;28;20035;-74
2022/09/11 08:21:04;;;;;;;0.30;0.30;;;13.00;99.90;;;;;;4977694;28;20034;-74
2022/09/11 08:23:31;;;;;;;0.30;0.30;;;12.90;99.90;;;;;;4969470;28;20429;-74
2022/09/11 08:26:05;;;;;;;0.30;0.30;;;13.00;99.90;;;;;;4981242;28;20035;-75
2022/09/11 08:28:30;;;;;;;0.40;0.40;;;13.00;99.90;;;;;;4988586;28;20030;-75
2022/09/11 08:30:57;;;;;;;0.57;0.57;;;13.10;99.90;;;;;;4987613;28;20385;-74
2022/09/11 08:33:23;;;;;;;0.40;0.40;;;13.00;99.90;;;;;;4987052;28;20031;-74
2022/09/11 08:35:49;;;;;;;0.50;0.50;;;13.10;99.90;;;;;;4986596;28;20038;-74
2022/09/11 08:38:15;;;;;;;0.40;0.40;;;13.10;99.90;;;;;;4988474;28;20038;-74
2022/09/11 08:40:40;;;;;;;0.30;0.30;;;13.20;99.90;;;;;;4986763;28;20149;-75
2022/09/11 08:43:34;;;;;;;0.53;0.53;;;13.20;99.90;;;;;;4988394;28;20030;-74
2022/09/11 08:46:04;;;;;;;0.60;0.60;;;13.20;99.90;;;;;;4988253;28;20054;-76
2022/09/11 08:48:52;;;;;;;0.30;0.30;;;13.20;99.90;;;;;;4986873;28;20406;-74
2022/09/11 08:51:18;;;;;;;0.30;0.30;;;13.20;99.90;;;;;;4986053;28;20037;-73
2022/09/11 08:53:44;;;;;;;0.40;0.40;;;13.20;99.90;;;;;;4969611;28;20095;-74
2022/09/11 08:56:22;;;;;;;0.40;0.40;;;13.20;99.90;;;;;;4967178;28;20039;-73
2022/09/11 08:59:35;;;;;;;0.40;0.40;;;13.20;99.90;;;;;;4975745;28;20054;-74
2022/09/11 09:02:06;;;;;;;0.75;0.70;;;13.20;99.90;;;;;;5087477;28;20040;-74
2022/09/11 09:05:04;;;;;;;0.40;0.40;;;13.20;99.90;;;;;;5069495;28;20017;-74
2022/09/11 09:07:45;;;;;;;0.47;0.47;;;13.20;99.90;;;;;;4994725;28;20050;-74
2022/09/11 09:10:42;;;;;;;0.52;0.52;;;13.20;99.90;;;;;;4968261;28;20027;-74
2022/09/11 09:13:41;;;;;;;0.77;0.77;;;13.20;99.90;;;;;;4972364;28;20046;-73
2022/09/11 09:16:31;;;;;;;0.40;0.40;;;13.20;99.90;;;;;;4968029;28;20041;-74
2022/09/11 09:19:07;;;;;;;0.20;0.20;;;13.20;99.90;;;;;;4966648;28;20031;-74
2022/09/11 09:21:54;;;;;;;0.30;0.30;;;13.30;99.90;;;;;;4983833;28;20034;-73
2022/09/11 09:24:20;;;;;;;1.30;1.17;;;13.20;99.90;;;;;;4987415;28;20022;-74
2022/09/11 09:26:51;;;;;;;0.50;0.50;;;13.30;99.90;;;;;;4987391;28;20420;-73
2022/09/11 09:29:22;;;;;;;1.20;0.63;;;13.30;99.90;;;;;;4994516;28;20440;-71
2022/09/11 09:31:52;;;;;;;0.60;0.60;;;13.40;99.90;;;;;;5005088;28;20030;-74
2022/09/11 09:34:20;;;;;;;0.70;0.70;;;13.40;99.90;;;;;;5006712;28;20026;-74
2022/09/11 09:37:04;;;;;;;0.80;0.68;;;13.40;99.90;;;;;;5003292;28;20057;-74
2022/09/11 09:39:30;;;;;;;0.47;0.47;;;13.50;99.90;;;;;;5006697;28;20065;-74
2022/09/11 09:42:09;;;;;;;1.40;1.13;;;13.50;99.90;;;;;;5008842;28;20071;-74
2022/09/11 09:44:47;;;;;;;0.60;0.60;;;13.60;99.90;;;;;;5009693;28;20121;-74
2022/09/11 09:47:14;;;;;;;0.40;0.40;;;13.70;99.90;;;;;;5008511;28;20520;-73
2022/09/11 09:49:41;;;;;;;0.55;0.55;;;13.70;99.90;;;;;;5009833;28;20033;-74
2022/09/11 09:52:23;;;;;;;0.52;0.52;;;13.70;99.90;;;;;;5008161;28;20042;-73
2022/09/11 09:55:00;;;;;;;0.30;0.30;;;13.70;99.90;;;;;;5009713;28;20026;-73
2022/09/11 09:57:30;;;;;;;0.63;0.63;;;13.70;99.90;;;;;;5010396;28;20045;-73
2022/09/11 10:00:22;;;;;;;0.30;0.30;;;13.80;99.90;;;;;;5001285;28;20038;-73
2022/09/11 10:02:56;;;;;;;0.50;0.50;;;13.80;99.90;;;;;;4992107;28;20080;-74
2022/09/11 10:05:30;;;;;;;1.02;1.02;;;13.80;99.90;;;;;;4990693;28;20042;-74
2022/09/11 10:08:02;;;;;;;0.40;0.40;;;13.80;99.90;;;;;;5020913;28;20041;-74
2022/09/11 10:10:37;;;;;;;0.65;0.65;;;13.80;99.90;;;;;;5009692;28;20071;-74
2022/09/11 10:13:21;;;;;;;0.50;0.50;;;13.70;99.90;;;;;;5008713;28;20034;-74
2022/09/11 10:15:52;;;;;;;0.30;0.30;;;13.80;99.90;;;;;;4996326;28;20149;-74
2022/09/11 10:18:38;;;;;;;0.40;0.40;;;13.90;99.90;;;;;;4990438;28;20034;-74
2022/09/11 10:21:21;;;;;;;1.05;0.98;;;13.90;99.90;;;;;;4991283;28;20034;-74
2022/09/11 10:23:54;;;;;;;0.68;0.68;;;14.00;99.90;;;;;;4988435;28;20385;-74
2022/09/11 10:26:36;;;;;;;0.73;0.73;;;14.00;99.90;;;;;;4988627;28;20107;-73
2022/09/11 10:29:31;;;;;;;0.95;0.95;;;14.00;99.90;;;;;;4988530;28;20075;-73
2022/09/11 10:32:01;;;;;;;0.60;0.60;;;13.90;99.90;;;;;;4969406;28;20035;-73
2022/09/11 10:34:36;;;;;;;1.45;1.08;;;13.80;99.90;;;;;;4969031;28;20114;-74
2022/09/11 10:37:14;;;;;;;0.50;0.50;;;13.90;99.90;;;;;;4979884;28;20134;-73
2022/09/11 10:39:42;;;;;;;0.68;0.68;;;14.00;99.90;;;;;;4990935;28;20026;-73
2022/09/11 10:42:21;;;;;;;0.55;0.55;;;13.90;99.90;;;;;;4989902;28;20045;-73
2022/09/11 10:44:49;;;;;;;1.20;1.10;;;14.00;99.90;;;;;;4990311;28;20046;-73
2022/09/11 10:47:29;;;;;;;0.45;0.45;;;13.90;99.90;;;;;;5009298;28;20501;-73
2022/09/11 10:50:25;;;;;;;0.45;0.45;;;13.90;99.90;;;;;;5009164;28;20033;-73
2022/09/11 10:52:57;;;;;;;0.30;0.30;;;13.90;99.90;;;;;;5022658;28;20096;-74
2022/09/11 10:55:31;;;;;;;1.00;0.68;;;14.00;99.90;;;;;;5007621;28;20033;-73
2022/09/11 10:58:17;;;;;;;0.32;0.32;;;14.00;99.90;;;;;;5007778;28;20041;-73
2022/09/11 11:00:43;;;;;;;0.80;0.77;;;14.00;99.90;;;;;;5000556;28;20531;-73
2022/09/11 11:03:20;;;;;;;0.75;0.75;;;14.10;99.90;;;;;;4989525;28;20105;-73
2022/09/11 11:06:02;;;;;;;0.60;0.60;;;14.10;99.90;;;;;;4988177;28;20163;-73
2022/09/11 11:08:46;;;;;;;1.40;1.30;;;14.20;99.90;;;;;;4990194;28;20380;-73
2022/09/11 11:11:32;;;;;;;1.85;0.73;;;14.20;99.90;;;;;;4969975;28;20292;-74
2022/09/11 11:14:47;;;;;;;0.60;0.60;;;14.30;99.90;;;;;;4969765;28;20378;-74
2022/09/11 11:17:31;;;;;;;0.75;0.75;;;14.30;99.90;;;;;;5003769;28;20381;-74
2022/09/11 11:20:17;;;;;;;0.40;0.40;;;14.40;99.90;;;;;;5007165;28;20430;-74
2022/09/11 11:23:21;;;;;;;1.02;0.95;;;14.40;99.90;;;;;;5006750;28;20060;-73
2022/09/11 11:26:16;;;;;;;2.17;1.48;;;14.50;99.90;;;;;;5008204;28;20077;-74
2022/09/11 11:29:10;;;;;;;0.55;0.55;;;13.50;99.90;;;;;;5008823;28;20045;-74
2022/09/11 11:32:06;;;;;;;0.52;0.52;;;14.60;99.90;;;;;;5007234;28;20048;-74
2022/09/11 11:35:00;;;;;;;0.45;0.45;;;14.50;99.90;;;;;;5008964;28;20018;-74
2022/09/11 11:37:33;;;;;;;0.40;0.40;;;14.60;99.90;;;;;;5007148;28;20038;-73
2022/09/11 11:40:12;;;;;;;1.13;1.05;;;14.70;99.90;;;;;;5008616;28;20037;-74
2022/09/11 11:42:51;;;;;;;1.35;1.25;;;14.70;99.90;;;;;;5008930;28;20038;-74
2022/09/11 11:45:33;;;;;;;0.50;0.50;;;14.70;99.90;;;;;;5005313;28;20213;-74
2022/09/11 11:48:04;;;;;;;0.73;0.73;;;14.70;99.90;;;;;;4987694;28;20054;-74
2022/09/11 11:50:46;;;;;;;0.63;0.63;;;14.70;99.90;;;;;;4987644;28;20026;-73
2022/09/11 11:53:23;;;;;;;0.65;0.65;;;14.80;99.90;;;;;;5002898;28;20030;-74
2022/09/11 11:56:13;;;;;;;0.40;0.40;;;14.70;99.90;;;;;;5008436;28;20037;-74
2022/09/11 11:58:50;;;;;;;0.75;0.75;;;14.60;99.90;;;;;;5006980;28;20125;-73
2022/09/11 12:01:18;;;;;;;0.50;0.50;;;14.60;99.90;;;;;;4997988;28;20557;-73
2022/09/11 12:04:03;;;;;;;0.68;0.68;;;14.70;99.90;;;;;;4988628;28;20083;-74
2022/09/11 12:06:30;;;;;;;0.40;0.40;;;14.70;99.90;;;;;;4987379;28;20088;-74
2022/09/11 12:08:56;;;;;;;0.47;0.47;;;14.70;99.90;;;;;;4989171;28;20035;-74
2022/09/11 12:11:32;;;;;;;0.68;0.63;;;14.70;99.90;;;;;;4988673;28;20095;-73
2022/09/11 12:13:58;;;;;;;1.45;1.05;;;14.70;99.90;;;;;;4989298;28;20505;-74
2022/09/11 12:16:33;;;;;;;0.82;0.82;;;14.70;99.90;;;;;;4988426;28;20114;-74
2022/09/11 12:19:03;;;;;;;0.98;0.98;;;14.70;99.90;;;;;;4986909;28;20355;-74
2022/09/11 12:21:30;;;;;;;0.40;0.40;;;14.70;99.90;;;;;;4988567;28;20060;-74
2022/09/11 12:23:55;;;;;;;0.93;0.93;;;14.70;99.90;;;;;;5002484;28;20063;-73
2022/09/11 12:26:26;;;;;;;0.50;0.50;;;14.70;99.90;;;;;;5007947;28;20037;-74
2022/09/11 12:29:29;;;;;;;0.95;0.93;;;14.70;99.90;;;;;;5008295;28;20033;-73
2022/09/11 12:31:57;;;;;;;0.80;0.77;;;14.60;99.90;;;;;;5010428;28;20042;-74
2022/09/11 12:34:45;;;;;;;1.38;0.55;;;14.60;99.90;;;;;;4986977;28;20014;-74
2022/09/11 12:37:19;;;;;;;0.73;0.73;;;14.70;99.90;;;;;;4988381;28;20529;-74
2022/09/11 12:39:52;;;;;;;1.00;1.00;;;14.80;99.90;;;;;;4968726;28;20292;-73
2022/09/11 12:42:26;;;;;;;1.65;1.13;;;14.70;99.90;;;;;;4969285;28;20425;-73
2022/09/11 12:44:53;;;;;;;0.50;0.50;;;14.70;99.90;;;;;;4967380;28;20458;-73
2022/09/11 12:47:26;;;;;;;1.88;1.67;;;14.70;99.90;;;;;;4989126;28;20336;-73
2022/09/11 12:50:18;;;;;;;0.82;0.82;;;14.70;99.90;;;;;;5007511;28;20045;-74
2022/09/11 12:52:43;;;;;;;0.50;0.50;;;14.80;99.90;;;;;;5013872;28;20046;-74
2022/09/11 12:55:38;;;;;;;0.70;0.70;;;14.90;99.90;;;;;;5005931;28;20492;-74
2022/09/11 12:58:20;;;;;;;0.77;0.77;;;14.80;99.90;;;;;;5005865;28;20045;-74
2022/09/11 13:01:10;;;;;;;1.13;1.05;;;14.70;99.90;;;;;;5007550;28;20033;-73
2022/09/11 13:03:38;;;;;;;0.52;0.52;;;14.70;99.90;;;;;;4987849;28;20041;-73
2022/09/11 13:06:10;;;;;;;1.38;1.27;;;14.80;99.90;;;;;;4987519;28;20527;-73
2022/09/11 13:08:44;;;;;;;1.25;1.17;;;14.90;99.90;;;;;;4988402;28;20502;-73
2022/09/11 13:11:39;;;;;;;0.85;0.85;;;15.00;99.90;;;;;;4987591;28;20027;-73
2022/09/11 13:14:27;;;;;;;0.38;0.38;;;15.20;99.90;;;;;;4987272;28;20030;-73